Latest Weather Observations for South Channel Island

IDV60901

Issued at 7:11 am EDT Thursday 5 March 2015 (issued every 10 minutes, with the page automatically refreshed every 10 minutes)

About weather observations | Map of Melbourne area stations | Latest observations for Melbourne area | Other Formats
Station Details ID: 086344 Name: SOUTH CHANNEL ISLAND Lat: -38.31 Lon: 144.80 Height: 9.0 m
Data from the previous 72 hours. | See also: Recent months for locations in Victoria
Date/Time
EDT
Tmp

°C
App
Tmp
°C
Dew
Point
°C
Rel
Hum
%
Delta-T

°C
Wind Press
QNH
hPa
Press
MSL
hPa
Rain
since
9 am
mm
Dir
 
Spd
km/h
Gust
km/h
Spd
kts
Gust
kts
05/07:00am - - - - - WSW 57 69 31 37 - - -
05/06:35am - - - - - SW 61 80 33 43 - - -
05/06:30am - - - - - WSW 63 76 34 41 - - -
05/06:00am - - - - - WSW 59 78 32 42 - - -
05/05:41am - - - - - WSW 63 83 34 45 - - -
05/05:30am - - - - - SW 67 83 36 45 - - -
05/05:01am - - - - - WSW 74 93 40 50 - - -
05/05:00am - - - - - WSW 76 93 41 50 - - -
05/04:35am - - - - - SW 72 95 39 51 - - -
05/04:30am - - - - - WSW 72 85 39 46 - - -
05/04:21am - - - - - WSW 65 85 35 46 - - -
05/04:00am - - - - - WSW 67 82 36 44 - - -
05/03:30am - - - - - WSW 80 98 43 53 - - -
05/03:00am - - - - - WSW 78 96 42 52 - - -
05/02:49am - - - - - WSW 67 98 36 53 - - -
05/02:47am - - - - - WSW 61 93 33 50 - - -
05/02:45am - - - - - WSW 57 80 31 43 - - -
05/02:30am - - - - - W 56 65 30 35 - - -
05/02:00am - - - - - W 56 63 30 34 - - -
05/01:31am - - - - - WNW 61 80 33 43 - - -
05/01:30am - - - - - WNW 63 80 34 43 - - -
05/01:00am - - - - - WNW 56 74 30 40 - - -
05/12:59am - - - - - WNW 54 74 29 40 - - -
05/12:30am - - - - - WNW 57 70 31 38 - - -
05/12:19am - - - - - WNW 57 76 31 41 - - -
05/12:00am - - - - - WNW 59 70 32 38 - - -
 
Date/Time
EDT
Tmp

°C
App
Tmp
°C
Dew
Point
°C
Rel
Hum
%
Delta-T

°C
Wind Press
QNH
hPa
Press
MSL
hPa
Rain
since
9 am
mm
Dir
 
Spd
km/h
Gust
km/h
Spd
kts
Gust
kts
04/11:41pm - - - - - WNW 46 65 25 35 - - -
04/11:30pm - - - - - W 39 50 21 27 - - -
04/11:00pm - - - - - W 41 46 22 25 - - -
04/10:30pm - - - - - W 41 50 22 27 - - -
04/10:00pm - - - - - W 32 39 17 21 - - -
04/09:30pm - - - - - W 32 37 17 20 - - -
04/09:00pm - - - - - WSW 35 41 19 22 - - -
04/08:30pm - - - - - W 32 37 17 20 - - -
04/08:00pm - - - - - WNW 33 39 18 21 - - -
04/07:30pm - - - - - W 35 41 19 22 - - -
04/07:00pm - - - - - W 35 43 19 23 - - -
04/06:30pm - - - - - WSW 32 35 17 19 - - -
04/06:00pm - - - - - WSW 30 35 16 19 - - -
04/05:30pm - - - - - WSW 19 24 10 13 - - -
04/05:00pm - - - - - WSW 26 33 14 18 - - -
04/04:30pm - - - - - WSW 28 33 15 18 - - -
04/04:00pm - - - - - W 32 37 17 20 - - -
04/03:30pm - - - - - W 33 39 18 21 - - -
04/03:00pm - - - - - WSW 22 30 12 16 - - -
04/02:30pm - - - - - W 22 26 12 14 - - -
04/02:00pm - - - - - WNW 19 26 10 14 - - -
04/01:30pm - - - - - WNW 26 32 14 17 - - -
04/01:00pm - - - - - WNW 19 24 10 13 - - -
04/12:30pm - - - - - NW 28 35 15 19 - - -
04/12:00pm - - - - - WNW 32 37 17 20 - - -
04/11:30am - - - - - W 35 41 19 22 - - -
04/11:00am - - - - - WNW 24 30 13 16 - - -
04/10:30am - - - - - WNW 28 30 15 16 - - -
04/10:00am - - - - - WNW 32 37 17 20 - - -
04/09:30am - - - - - WNW 35 41 19 22 - - -
04/09:00am - - - - - WNW 33 37 18 20 - - -
04/08:30am - - - - - NW 33 37 18 20 - - -
04/08:00am - - - - - WNW 33 39 18 21 - - -
04/07:30am - - - - - NW 32 35 17 19 - - -
04/07:00am - - - - - WNW 32 35 17 19 - - -
04/06:30am - - - - - WNW 28 35 15 19 - - -
04/06:00am - - - - - WNW 26 30 14 16 - - -
04/05:30am - - - - - W 22 30 12 16 - - -
04/05:00am - - - - - WSW 26 30 14 16 - - -
04/04:30am - - - - - W 26 30 14 16 - - -
04/04:00am - - - - - W 26 30 14 16 - - -
04/03:30am - - - - - WNW 24 30 13 16 - - -
04/03:00am - - - - - WSW 22 28 12 15 - - -
04/02:30am - - - - - WSW 19 22 10 12 - - -
04/02:00am - - - - - WSW 20 26 11 14 - - -
04/01:30am - - - - - SW 20 26 11 14 - - -
04/01:00am - - - - - SW 20 24 11 13 - - -
04/12:30am - - - - - SW 22 26 12 14 - - -
04/12:00am - - - - - SSW 22 26 12 14 - - -
 
Date/Time
EDT
Tmp

°C
App
Tmp
°C
Dew
Point
°C
Rel
Hum
%
Delta-T

°C
Wind Press
QNH
hPa
Press
MSL
hPa
Rain
since
9 am
mm
Dir
 
Spd
km/h
Gust
km/h
Spd
kts
Gust
kts
03/11:30pm - - - - - SW 28 32 15 17 - - -
03/11:00pm - - - - - SSW 26 32 14 17 - - -
03/10:30pm - - - - - SSW 24 28 13 15 - - -
03/10:00pm - - - - - SSW 26 30 14 16 - - -
03/09:30pm - - - - - SSW 24 28 13 15 - - -
03/09:00pm - - - - - SSW 24 28 13 15 - - -
03/08:30pm - - - - - SSW 28 32 15 17 - - -
03/08:00pm - - - - - SSW 30 35 16 19 - - -
03/07:30pm - - - - - SSW 30 35 16 19 - - -
03/07:00pm - - - - - SSW 28 33 15 18 - - -
03/06:30pm - - - - - S 26 30 14 16 - - -
03/06:00pm - - - - - S 26 30 14 16 - - -
03/05:30pm - - - - - S 22 28 12 15 - - -
03/05:00pm - - - - - SSW 24 28 13 15 - - -
03/04:30pm - - - - - S 19 22 10 12 - - -
03/04:00pm - - - - - S 17 20 9 11 - - -
03/03:30pm - - - - - S 15 17 8 9 - - -
03/03:00pm - - - - - S 20 28 11 15 - - -
03/02:30pm - - - - - SSW 17 22 9 12 - - -
03/02:00pm - - - - - SSW 15 19 8 10 - - -
03/01:30pm - - - - - SW 11 15 6 8 - - -
03/01:00pm - - - - - SW 9 13 5 7 - - -
03/12:30pm - - - - - SW 13 17 7 9 - - -
03/12:00pm - - - - - SSW 11 15 6 8 - - -
03/11:30am - - - - - SSW 17 20 9 11 - - -
03/11:00am - - - - - SSW 19 26 10 14 - - -
03/10:30am - - - - - SSW 20 26 11 14 - - -
03/10:00am - - - - - S 22 26 12 14 - - -
03/09:30am - - - - - SSW 26 30 14 16 - - -
03/09:00am - - - - - S 22 28 12 15 - - -
03/08:30am - - - - - S 17 20 9 11 - - -
03/08:00am - - - - - SSE 17 19 9 10 - - -
03/07:30am - - - - - S 19 22 10 12 - - -
03/07:00am - - - - - SSE 9 13 5 7 - - -
03/06:30am - - - - - SSW 13 15 7 8 - - -
03/06:00am - - - - - SW 15 19 8 10 - - -
03/05:30am - - - - - SW 9 13 5 7 - - -
03/05:00am - - - - - SSW 13 17 7 9 - - -
03/04:30am - - - - - SSW 15 17 8 9 - - -
03/04:00am - - - - - SSW 17 20 9 11 - - -
03/03:30am - - - - - S 20 24 11 13 - - -
03/03:00am - - - - - SSW 24 26 13 14 - - -
03/02:30am - - - - - SSW 17 20 9 11 - - -
03/02:00am - - - - - SSW 17 20 9 11 - - -
03/01:30am - - - - - S 15 19 8 10 - - -
03/01:00am - - - - - SSW 11 13 6 7 - - -
03/12:30am - - - - - SE 11 11 6 6 - - -
03/12:00am - - - - - SSE 15 19 8 10 - - -
 
Date/Time
EDT
Tmp

°C
App
Tmp
°C
Dew
Point
°C
Rel
Hum
%
Delta-T

°C
Wind Press
QNH
hPa
Press
MSL
hPa
Rain
since
9 am
mm
Dir
 
Spd
km/h
Gust
km/h
Spd
kts
Gust
kts
02/11:30pm - - - - - SSE 11 15 6 8 - - -
02/11:00pm - - - - - SE 13 15 7 8 - - -
02/10:30pm - - - - - SSE 19 22 10 12 - - -
02/10:00pm - - - - - SSE 15 17 8 9 - - -
02/09:30pm - - - - - SSE 19 24 10 13 - - -
02/09:00pm - - - - - SSE 17 19 9 10 - - -
02/08:30pm - - - - - SSE 19 20 10 11 - - -
02/08:00pm - - - - - SSE 20 26 11 14 - - -
02/07:30pm - - - - - SE 24 30 13 16 - - -
02/07:00pm - - - - - SE 22 26 12 14 - - -
02/06:30pm - - - - - SSE 22 26 12 14 - - -
02/06:00pm - - - - - SSE 19 22 10 12 - - -
02/05:30pm - - - - - S 11 13 6 7 - - -
02/05:00pm - - - - - SE 7 9 4 5 - - -
02/04:30pm - - - - - S 6 9 3 5 - - -
02/04:00pm - - - - - S 9 11 5 6 - - -
02/03:30pm - - - - - ESE 6 9 3 5 - - -
02/03:00pm - - - - - ENE 7 9 4 5 - - -
02/02:30pm - - - - - NNE 2 7 1 4 - - -
02/02:00pm - - - - - NNW 6 9 3 5 - - -
02/01:30pm - - - - - NNW 9 11 5 6 - - -
02/01:00pm - - - - - NNW 9 15 5 8 - - -
02/12:30pm - - - - - N 15 19 8 10 - - -
02/12:00pm - - - - - NNE 9 13 5 7 - - -
02/11:30am - - - - - NE 15 20 8 11 - - -
02/11:00am - - - - - ENE 15 22 8 12 - - -
02/10:30am - - - - - ENE 19 26 10 14 - - -
02/10:00am - - - - - ENE 19 24 10 13 - - -
02/09:30am - - - - - ENE 17 19 9 10 - - -
02/09:00am - - - - - ENE 20 28 11 15 - - -
02/08:30am - - - - - E 20 26 11 14 - - -
02/08:00am - - - - - E 20 26 11 14 - - -
02/07:30am - - - - - E 19 28 10 15 - - -

Latest Capital City Observations: Canberra | Sydney | Melbourne | Brisbane | Adelaide | Perth | Hobart | Darwin

Other Formats:

Comma delimited format used in spreadsheet applications
http://www.bom.gov.au/fwo/IDV60901/IDV60901.94853.axf

JavaScript Object Notation format (JSON) in row-major order
http://www.bom.gov.au/fwo/IDV60901/IDV60901.94853.json